sensor_id;sensor_type;location;lat;lon;timestamp;pressure;altitude;pressure_sealevel;temperature;humidity
70976;BME280;58635;51.198;6.010;2022-08-03T00:02:12;101388.44;;;26.86;46.75
70976;BME280;58635;51.198;6.010;2022-08-03T00:04:37;101383.22;;;26.81;46.65
70976;BME280;58635;51.198;6.010;2022-08-03T00:07:03;101388.63;;;26.76;46.63
70976;BME280;58635;51.198;6.010;2022-08-03T00:09:28;101389.91;;;26.78;46.56
70976;BME280;58635;51.198;6.010;2022-08-03T00:11:55;101386.22;;;26.74;46.87
70976;BME280;58635;51.198;6.010;2022-08-03T00:14:20;101381.50;;;26.71;46.91
70976;BME280;58635;51.198;6.010;2022-08-03T00:16:46;101383.88;;;26.73;46.72
70976;BME280;58635;51.198;6.010;2022-08-03T00:19:11;101382.28;;;26.72;46.85
70976;BME280;58635;51.198;6.010;2022-08-03T00:21:36;101384.44;;;26.70;46.80
70976;BME280;58635;51.198;6.010;2022-08-03T00:24:02;101379.50;;;26.63;46.63
70976;BME280;58635;51.198;6.010;2022-08-03T00:26:28;101384.53;;;26.65;46.84
70976;BME280;58635;51.198;6.010;2022-08-03T00:28:53;101382.94;;;26.64;46.74
70976;BME280;58635;51.198;6.010;2022-08-03T00:31:18;101380.34;;;26.59;47.07
70976;BME280;58635;51.198;6.010;2022-08-03T00:33:44;101381.16;;;26.59;47.25
70976;BME280;58635;51.198;6.010;2022-08-03T00:36:09;101385.97;;;26.57;46.88
70976;BME280;58635;51.198;6.010;2022-08-03T00:38:35;101385.75;;;26.54;47.28
70976;BME280;58635;51.198;6.010;2022-08-03T00:41:00;101370.25;;;26.42;47.20
70976;BME280;58635;51.198;6.010;2022-08-03T00:43:26;101383.44;;;26.47;47.67
70976;BME280;58635;51.198;6.010;2022-08-03T00:45:52;101367.06;;;26.40;47.16
70976;BME280;58635;51.198;6.010;2022-08-03T00:48:19;101375.56;;;26.42;47.41
70976;BME280;58635;51.198;6.010;2022-08-03T00:50:45;101370.56;;;26.35;47.66
70976;BME280;58635;51.198;6.010;2022-08-03T00:53:12;101371.91;;;26.33;47.39
70976;BME280;58635;51.198;6.010;2022-08-03T00:55:39;101378.28;;;26.32;47.61
70976;BME280;58635;51.198;6.010;2022-08-03T00:58:04;101375.41;;;26.28;47.72
70976;BME280;58635;51.198;6.010;2022-08-03T01:00:32;101376.75;;;26.26;47.80
70976;BME280;58635;51.198;6.010;2022-08-03T01:02:57;101377.63;;;26.21;47.87
70976;BME280;58635;51.198;6.010;2022-08-03T01:05:23;101364.41;;;26.16;47.99
70976;BME280;58635;51.198;6.010;2022-08-03T01:08:13;101372.38;;;26.16;47.90
70976;BME280;58635;51.198;6.010;2022-08-03T01:13:35;101367.22;;;26.06;48.34
70976;BME280;58635;51.198;6.010;2022-08-03T01:16:08;101362.44;;;26.03;48.03
70976;BME280;58635;51.198;6.010;2022-08-03T01:24:40;101361.28;;;25.90;48.91
70976;BME280;58635;51.198;6.010;2022-08-03T01:27:14;101361.84;;;25.87;48.68
70976;BME280;58635;51.198;6.010;2022-08-03T01:30:17;101359.19;;;25.87;48.96
70976;BME280;58635;51.198;6.010;2022-08-03T01:32:47;101359.25;;;25.82;48.86
70976;BME280;58635;51.198;6.010;2022-08-03T01:35:21;101364.03;;;25.80;48.73
70976;BME280;58635;51.198;6.010;2022-08-03T01:37:56;101351.13;;;25.73;48.73
70976;BME280;58635;51.198;6.010;2022-08-03T01:40:24;101360.38;;;25.76;49.21
70976;BME280;58635;51.198;6.010;2022-08-03T01:42:53;101358.03;;;25.69;49.34
70976;BME280;58635;51.198;6.010;2022-08-03T01:45:21;101357.22;;;25.69;49.47
70976;BME280;58635;51.198;6.010;2022-08-03T01:47:47;101349.06;;;25.65;49.15
70976;BME280;58635;51.198;6.010;2022-08-03T01:50:14;101350.41;;;25.62;49.64
70976;BME280;58635;51.198;6.010;2022-08-03T01:52:43;101345.97;;;25.58;49.34
70976;BME280;58635;51.198;6.010;2022-08-03T01:55:11;101347.53;;;25.59;49.48
70976;BME280;58635;51.198;6.010;2022-08-03T01:57:38;101352.03;;;25.58;49.58
70976;BME280;58635;51.198;6.010;2022-08-03T02:00:05;101345.41;;;25.56;49.88
70976;BME280;58635;51.198;6.010;2022-08-03T02:02:35;101346.78;;;25.53;49.82
70976;BME280;58635;51.198;6.010;2022-08-03T02:05:04;101334.38;;;25.49;50.22
70976;BME280;58635;51.198;6.010;2022-08-03T02:07:31;101346.56;;;25.50;50.20
70976;BME280;58635;51.198;6.010;2022-08-03T02:09:58;101343.16;;;25.44;50.28
70976;BME280;58635;51.198;6.010;2022-08-03T02:12:25;101348.44;;;25.44;50.15
70976;BME280;58635;51.198;6.010;2022-08-03T02:14:53;101348.22;;;25.41;49.92
70976;BME280;58635;51.198;6.010;2022-08-03T02:17:21;101334.78;;;25.32;50.40
70976;BME280;58635;51.198;6.010;2022-08-03T02:19:49;101347.75;;;25.33;50.32
70976;BME280;58635;51.198;6.010;2022-08-03T02:22:16;101334.56;;;25.28;50.25
70976;BME280;58635;51.198;6.010;2022-08-03T02:24:41;101338.50;;;25.31;50.03
70976;BME280;58635;51.198;6.010;2022-08-03T02:27:25;101348.31;;;25.30;50.32
70976;BME280;58635;51.198;6.010;2022-08-03T02:29:59;101347.28;;;25.26;50.16
70976;BME280;58635;51.198;6.010;2022-08-03T02:32:32;101342.28;;;25.25;50.42
70976;BME280;58635;51.198;6.010;2022-08-03T02:35:00;101340.72;;;25.19;50.83
70976;BME280;58635;51.198;6.010;2022-08-03T02:37:30;101335.72;;;25.17;50.75
70976;BME280;58635;51.198;6.010;2022-08-03T02:40:02;101344.72;;;25.16;50.43
70976;BME280;58635;51.198;6.010;2022-08-03T02:42:29;101344.22;;;25.14;50.88
70976;BME280;58635;51.198;6.010;2022-08-03T02:44:59;101341.34;;;25.11;50.77
70976;BME280;58635;51.198;6.010;2022-08-03T02:47:27;101340.28;;;25.12;50.63
70976;BME280;58635;51.198;6.010;2022-08-03T02:49:56;101339.22;;;25.07;50.93
70976;BME280;58635;51.198;6.010;2022-08-03T02:52:27;101332.06;;;25.08;50.88
70976;BME280;58635;51.198;6.010;2022-08-03T02:54:55;101339.00;;;25.04;50.82
70976;BME280;58635;51.198;6.010;2022-08-03T02:57:23;101334.78;;;25.03;51.33
70976;BME280;58635;51.198;6.010;2022-08-03T02:59:51;101342.44;;;25.04;50.91
70976;BME280;58635;51.198;6.010;2022-08-03T03:02:18;101340.34;;;25.01;50.99
70976;BME280;58635;51.198;6.010;2022-08-03T03:04:45;101332.66;;;25.00;51.09
70976;BME280;58635;51.198;6.010;2022-08-03T03:07:14;101327.09;;;24.96;50.87
70976;BME280;58635;51.198;6.010;2022-08-03T03:09:41;101338.47;;;24.97;51.11
70976;BME280;58635;51.198;6.010;2022-08-03T03:12:08;101332.16;;;24.93;51.48
70976;BME280;58635;51.198;6.010;2022-08-03T03:14:36;101329.81;;;24.91;51.33
70976;BME280;58635;51.198;6.010;2022-08-03T03:17:02;101328.00;;;24.87;51.41
70976;BME280;58635;51.198;6.010;2022-08-03T03:19:31;101334.31;;;24.91;51.44
70976;BME280;58635;51.198;6.010;2022-08-03T03:22:01;101330.09;;;24.85;51.57
70976;BME280;58635;51.198;6.010;2022-08-03T03:24:28;101328.25;;;24.85;51.46
70976;BME280;58635;51.198;6.010;2022-08-03T03:26:54;101334.88;;;24.88;51.27
70976;BME280;58635;51.198;6.010;2022-08-03T03:29:20;101332.22;;;24.83;51.73
70976;BME280;58635;51.198;6.010;2022-08-03T03:31:46;101330.94;;;24.80;51.86
70976;BME280;58635;51.198;6.010;2022-08-03T03:34:12;101330.94;;;24.80;51.79
70976;BME280;58635;51.198;6.010;2022-08-03T03:36:38;101331.22;;;24.78;51.74
70976;BME280;58635;51.198;6.010;2022-08-03T03:39:03;101338.38;;;24.78;51.25
70976;BME280;58635;51.198;6.010;2022-08-03T03:41:29;101337.84;;;24.76;51.24
70976;BME280;58635;51.198;6.010;2022-08-03T03:43:55;101324.13;;;24.69;51.36
70976;BME280;58635;51.198;6.010;2022-08-03T03:46:20;101343.16;;;24.71;51.62
70976;BME280;58635;51.198;6.010;2022-08-03T03:48:47;101342.09;;;24.72;51.65
70976;BME280;58635;51.198;6.010;2022-08-03T03:51:12;101341.84;;;24.68;51.69
70976;BME280;58635;51.198;6.010;2022-08-03T03:53:38;101337.41;;;24.64;52.08
70976;BME280;58635;51.198;6.010;2022-08-03T03:56:03;101333.19;;;24.63;51.84
70976;BME280;58635;51.198;6.010;2022-08-03T03:58:30;101327.91;;;24.58;51.54
70976;BME280;58635;51.198;6.010;2022-08-03T04:00:56;101337.13;;;24.60;51.83
70976;BME280;58635;51.198;6.010;2022-08-03T04:03:21;101332.16;;;24.54;51.54
70976;BME280;58635;51.198;6.010;2022-08-03T04:05:47;101338.47;;;24.58;51.90
70976;BME280;58635;51.198;6.010;2022-08-03T04:08:31;101335.59;;;24.54;51.56
70976;BME280;58635;51.198;6.010;2022-08-03T04:11:26;101337.97;;;24.50;51.41
70976;BME280;58635;51.198;6.010;2022-08-03T04:14:01;101332.44;;;24.47;52.05
70976;BME280;58635;51.198;6.010;2022-08-03T04:16:31;101331.91;;;24.50;51.80
70976;BME280;58635;51.198;6.010;2022-08-03T04:19:23;101327.72;;;24.44;51.96
70976;BME280;58635;51.198;6.010;2022-08-03T04:21:52;101333.56;;;24.36;51.65
70976;BME280;58635;51.198;6.010;2022-08-03T04:24:19;101331.19;;;24.39;51.72
70976;BME280;58635;51.198;6.010;2022-08-03T04:26:48;101332.75;;;24.40;51.75
70976;BME280;58635;51.198;6.010;2022-08-03T04:29:15;101334.06;;;24.43;51.72
70976;BME280;58635;51.198;6.010;2022-08-03T04:31:44;101339.34;;;24.43;52.25
70976;BME280;58635;51.198;6.010;2022-08-03T04:34:11;101335.13;;;24.42;51.72
70976;BME280;58635;51.198;6.010;2022-08-03T04:36:42;101338.28;;;24.44;51.73
70976;BME280;58635;51.198;6.010;2022-08-03T04:39:17;101345.94;;;24.45;51.91
70976;BME280;58635;51.198;6.010;2022-08-03T04:41:44;101343.56;;;24.44;51.94
70976;BME280;58635;51.198;6.010;2022-08-03T04:44:10;101344.09;;;24.46;51.83
70976;BME280;58635;51.198;6.010;2022-08-03T04:46:37;101342.50;;;24.45;51.83
70976;BME280;58635;51.198;6.010;2022-08-03T04:49:03;101346.75;;;24.46;51.84
70976;BME280;58635;51.198;6.010;2022-08-03T04:51:30;101345.66;;;24.47;51.55
70976;BME280;58635;51.198;6.010;2022-08-03T04:53:56;101350.69;;;24.48;52.10
70976;BME280;58635;51.198;6.010;2022-08-03T04:56:21;101339.63;;;24.41;51.68
70976;BME280;58635;51.198;6.010;2022-08-03T04:58:47;101346.78;;;24.41;52.15
70976;BME280;58635;51.198;6.010;2022-08-03T05:01:12;101350.16;;;24.52;51.91
70976;BME280;58635;51.198;6.010;2022-08-03T05:03:37;101358.84;;;24.57;51.29
70976;BME280;58635;51.198;6.010;2022-08-03T05:06:03;101355.38;;;24.62;51.31
70976;BME280;58635;51.198;6.010;2022-08-03T05:08:28;101360.34;;;24.73;51.29
70976;BME280;58635;51.198;6.010;2022-08-03T05:10:54;101360.28;;;24.84;51.17
70976;BME280;58635;51.198;6.010;2022-08-03T05:13:20;101363.91;;;24.93;50.99
70976;BME280;58635;51.198;6.010;2022-08-03T05:15:45;101367.59;;;25.02;50.79
70976;BME280;58635;51.198;6.010;2022-08-03T05:18:11;101360.91;;;25.10;50.37
70976;BME280;58635;51.198;6.010;2022-08-03T05:20:36;101367.19;;;25.19;50.13
70976;BME280;58635;51.198;6.010;2022-08-03T05:23:01;101370.91;;;25.23;50.14
70976;BME280;58635;51.198;6.010;2022-08-03T05:25:28;101373.25;;;25.24;50.27
70976;BME280;58635;51.198;6.010;2022-08-03T05:27:54;101363.19;;;25.26;49.78
70976;BME280;58635;51.198;6.010;2022-08-03T05:30:20;101374.47;;;25.37;49.74
70976;BME280;58635;51.198;6.010;2022-08-03T05:32:46;101371.19;;;25.50;49.65
70976;BME280;58635;51.198;6.010;2022-08-03T05:35:11;101369.16;;;25.66;49.26
70976;BME280;58635;51.198;6.010;2022-08-03T05:37:36;101371.97;;;25.80;49.11
70976;BME280;58635;51.198;6.010;2022-08-03T05:40:03;101371.66;;;25.86;48.69
70976;BME280;58635;51.198;6.010;2022-08-03T05:42:28;101371.59;;;25.91;48.51
70976;BME280;58635;51.198;6.010;2022-08-03T05:44:54;101372.56;;;26.01;48.37
70976;BME280;58635;51.198;6.010;2022-08-03T05:47:19;101366.13;;;26.07;47.98
70976;BME280;58635;51.198;6.010;2022-08-03T05:49:45;101369.66;;;26.21;48.20
70976;BME280;58635;51.198;6.010;2022-08-03T05:52:10;101371.91;;;26.33;48.07
70976;BME280;58635;51.198;6.010;2022-08-03T05:54:36;101368.09;;;26.44;47.32
70976;BME280;58635;51.198;6.010;2022-08-03T05:57:01;101375.06;;;26.59;46.74
70976;BME280;58635;51.198;6.010;2022-08-03T05:59:27;101377.47;;;26.74;47.04
70976;BME280;58635;51.198;6.010;2022-08-03T06:01:52;101375.97;;;26.87;46.81
70976;BME280;58635;51.198;6.010;2022-08-03T06:04:18;101373.41;;;27.00;46.22
70976;BME280;58635;51.198;6.010;2022-08-03T06:06:44;101370.53;;;27.16;45.91
70976;BME280;58635;51.198;6.010;2022-08-03T06:09:09;101372.34;;;27.34;45.62
70976;BME280;58635;51.198;6.010;2022-08-03T06:11:35;101372.66;;;27.46;45.90
70976;BME280;58635;51.198;6.010;2022-08-03T06:14:01;101378.22;;;27.63;45.29
70976;BME280;58635;51.198;6.010;2022-08-03T06:16:27;101373.22;;;27.76;44.92
70976;BME280;58635;51.198;6.010;2022-08-03T06:18:52;101380.44;;;27.89;44.69
70976;BME280;58635;51.198;6.010;2022-08-03T06:21:17;101374.50;;;28.06;44.82
70976;BME280;58635;51.198;6.010;2022-08-03T06:23:45;101374.72;;;28.23;44.11
70976;BME280;58635;51.198;6.010;2022-08-03T06:26:11;101372.66;;;28.34;43.96
70976;BME280;58635;51.198;6.010;2022-08-03T06:28:37;101379.81;;;28.47;43.90
70976;BME280;58635;51.198;6.010;2022-08-03T06:31:03;101380.09;;;28.59;43.79
70976;BME280;58635;51.198;6.010;2022-08-03T06:33:28;101387.72;;;28.74;43.44
70976;BME280;58635;51.198;6.010;2022-08-03T06:35:54;101385.81;;;28.89;43.23
70976;BME280;58635;51.198;6.010;2022-08-03T06:38:19;101381.91;;;29.08;43.22
70976;BME280;58635;51.198;6.010;2022-08-03T06:40:44;101379.16;;;29.22;42.41
70976;BME280;58635;51.198;6.010;2022-08-03T06:43:10;101384.91;;;29.38;42.33
70976;BME280;58635;51.198;6.010;2022-08-03T06:45:36;101385.47;;;29.49;42.12
70976;BME280;58635;51.198;6.010;2022-08-03T06:48:05;101383.75;;;29.53;42.28
70976;BME280;58635;51.198;6.010;2022-08-03T06:50:32;101388.34;;;29.61;41.75
70976;BME280;58635;51.198;6.010;2022-08-03T06:52:58;101385.59;;;29.75;41.41
70976;BME280;58635;51.198;6.010;2022-08-03T06:55:24;101385.00;;;29.95;41.57
70976;BME280;58635;51.198;6.010;2022-08-03T06:57:50;101386.22;;;30.11;40.93
70976;BME280;58635;51.198;6.010;2022-08-03T07:00:16;101397.84;;;30.24;40.92
70976;BME280;58635;51.198;6.010;2022-08-03T07:02:43;101387.03;;;30.38;40.03
70976;BME280;58635;51.198;6.010;2022-08-03T07:05:09;101384.09;;;30.56;39.76
70976;BME280;58635;51.198;6.010;2022-08-03T07:07:36;101381.09;;;30.75;39.42
70976;BME280;58635;51.198;6.010;2022-08-03T07:10:02;101379.69;;;30.95;39.35
70976;BME280;58635;51.198;6.010;2022-08-03T07:12:28;101385.16;;;31.16;38.85
70976;BME280;58635;51.198;6.010;2022-08-03T07:14:54;101393.00;;;31.38;38.13
70976;BME280;58635;51.198;6.010;2022-08-03T07:17:20;101392.16;;;31.47;37.98
70976;BME280;58635;51.198;6.010;2022-08-03T07:19:45;101391.03;;;31.56;38.37
70976;BME280;58635;51.198;6.010;2022-08-03T07:22:11;101389.72;;;31.71;37.85
70976;BME280;58635;51.198;6.010;2022-08-03T07:24:36;101392.19;;;31.85;37.71
70976;BME280;58635;51.198;6.010;2022-08-03T07:27:02;101387.09;;;32.00;37.41
70976;BME280;58635;51.198;6.010;2022-08-03T07:29:28;101394.22;;;32.17;37.03
70976;BME280;58635;51.198;6.010;2022-08-03T07:31:53;101405.66;;;32.26;37.17
70976;BME280;58635;51.198;6.010;2022-08-03T07:34:19;101404.88;;;32.35;37.05
70976;BME280;58635;51.198;6.010;2022-08-03T07:36:45;101406.19;;;32.49;36.86
70976;BME280;58635;51.198;6.010;2022-08-03T07:39:10;101398.31;;;32.65;36.13
70976;BME280;58635;51.198;6.010;2022-08-03T07:41:36;101396.63;;;32.81;35.78
70976;BME280;58635;51.198;6.010;2022-08-03T07:44:01;101393.09;;;32.90;35.31
70976;BME280;58635;51.198;6.010;2022-08-03T07:46:27;101391.78;;;32.96;35.42
70976;BME280;58635;51.198;6.010;2022-08-03T07:48:52;101396.59;;;33.02;35.00
70976;BME280;58635;51.198;6.010;2022-08-03T07:51:18;101396.41;;;33.07;35.06
70976;BME280;58635;51.198;6.010;2022-08-03T07:53:43;101403.66;;;33.07;34.98
70976;BME280;58635;51.198;6.010;2022-08-03T07:56:09;101401.66;;;33.04;34.71
70976;BME280;58635;51.198;6.010;2022-08-03T07:58:34;101396.81;;;32.97;34.62
70976;BME280;58635;51.198;6.010;2022-08-03T08:01:00;101398.13;;;32.91;34.70
70976;BME280;58635;51.198;6.010;2022-08-03T08:03:25;101401.47;;;32.88;34.95
70976;BME280;58635;51.198;6.010;2022-08-03T08:05:51;101400.22;;;32.85;35.04
70976;BME280;58635;51.198;6.010;2022-08-03T08:08:18;101394.75;;;32.82;34.88
70976;BME280;58635;51.198;6.010;2022-08-03T08:10:44;101405.47;;;32.82;35.11
70976;BME280;58635;51.198;6.010;2022-08-03T08:13:10;101399.31;;;32.81;34.92
70976;BME280;58635;51.198;6.010;2022-08-03T08:15:35;101395.25;;;32.75;35.14
70976;BME280;58635;51.198;6.010;2022-08-03T08:18:01;101395.97;;;32.64;35.24
70976;BME280;58635;51.198;6.010;2022-08-03T08:20:30;101392.28;;;32.56;35.23
70976;BME280;58635;51.198;6.010;2022-08-03T08:22:56;101396.19;;;32.58;34.78
70976;BME280;58635;51.198;6.010;2022-08-03T08:25:22;101393.69;;;32.53;34.82
70976;BME280;58635;51.198;6.010;2022-08-03T08:27:49;101392.84;;;32.41;34.92
70976;BME280;58635;51.198;6.010;2022-08-03T08:30:17;101391.81;;;32.33;35.00
70976;BME280;58635;51.198;6.010;2022-08-03T08:32:46;101393.22;;;32.31;35.43
70976;BME280;58635;51.198;6.010;2022-08-03T08:35:11;101390.59;;;32.22;35.21
70976;BME280;58635;51.198;6.010;2022-08-03T08:37:37;101389.50;;;32.23;35.48
70976;BME280;58635;51.198;6.010;2022-08-03T08:40:04;101393.84;;;32.27;35.41
70976;BME280;58635;51.198;6.010;2022-08-03T08:42:31;101388.97;;;32.29;35.36
70976;BME280;58635;51.198;6.010;2022-08-03T08:44:56;101389.44;;;32.32;35.37
70976;BME280;58635;51.198;6.010;2022-08-03T08:47:29;101396.97;;;32.38;35.27
70976;BME280;58635;51.198;6.010;2022-08-03T08:49:56;101401.31;;;32.43;34.94
70976;BME280;58635;51.198;6.010;2022-08-03T08:52:27;101402.59;;;32.45;35.24
70976;BME280;58635;51.198;6.010;2022-08-03T08:54:59;101393.44;;;32.46;35.27
70976;BME280;58635;51.198;6.010;2022-08-03T08:57:28;101390.22;;;32.53;35.23
70976;BME280;58635;51.198;6.010;2022-08-03T08:59:55;101399.78;;;32.63;35.02
70976;BME280;58635;51.198;6.010;2022-08-03T09:02:24;101397.34;;;32.70;34.84
70976;BME280;58635;51.198;6.010;2022-08-03T09:04:50;101397.47;;;32.73;35.04
70976;BME280;58635;51.198;6.010;2022-08-03T09:07:16;101393.34;;;32.76;34.97
70976;BME280;58635;51.198;6.010;2022-08-03T09:09:42;101395.25;;;32.75;34.73
70976;BME280;58635;51.198;6.010;2022-08-03T09:12:08;101391.44;;;32.76;34.60
70976;BME280;58635;51.198;6.010;2022-08-03T09:14:34;101384.81;;;32.82;34.59
70976;BME280;58635;51.198;6.010;2022-08-03T09:17:01;101392.53;;;32.84;34.42
70976;BME280;58635;51.198;6.010;2022-08-03T09:19:29;101392.09;;;32.82;34.51
70976;BME280;58635;51.198;6.010;2022-08-03T09:24:34;101387.81;;;32.81;34.76
70976;BME280;58635;51.198;6.010;2022-08-03T09:27:00;101391.75;;;32.83;34.54
70976;BME280;58635;51.198;6.010;2022-08-03T09:29:25;101392.19;;;32.85;34.41
70976;BME280;58635;51.198;6.010;2022-08-03T09:32:01;101388.78;;;32.97;34.34
70976;BME280;58635;51.198;6.010;2022-08-03T09:34:27;101395.19;;;33.05;34.30
70976;BME280;58635;51.198;6.010;2022-08-03T09:36:53;101384.16;;;33.19;34.06
70976;BME280;58635;51.198;6.010;2022-08-03T09:39:20;101397.91;;;33.29;33.69
70976;BME280;58635;51.198;6.010;2022-08-03T09:41:49;101390.75;;;33.33;33.57
70976;BME280;58635;51.198;6.010;2022-08-03T09:44:35;101388.34;;;33.40;33.39
70976;BME280;58635;51.198;6.010;2022-08-03T09:47:01;101388.25;;;33.49;33.40
70976;BME280;58635;51.198;6.010;2022-08-03T09:49:26;101380.78;;;33.55;33.23
70976;BME280;58635;51.198;6.010;2022-08-03T09:51:53;101384.69;;;33.57;33.38
70976;BME280;58635;51.198;6.010;2022-08-03T09:54:29;101384.69;;;33.57;33.29
70976;BME280;58635;51.198;6.010;2022-08-03T09:56:56;101385.25;;;33.63;33.02
70976;BME280;58635;51.198;6.010;2022-08-03T09:59:27;101381.22;;;33.69;32.77
70976;BME280;58635;51.198;6.010;2022-08-03T10:01:53;101375.84;;;33.69;32.74
70976;BME280;58635;51.198;6.010;2022-08-03T10:04:20;101385.47;;;33.70;32.69
70976;BME280;58635;51.198;6.010;2022-08-03T10:07:06;101373.41;;;33.76;32.41
70976;BME280;58635;51.198;6.010;2022-08-03T10:09:34;101377.50;;;33.86;32.52
70976;BME280;58635;51.198;6.010;2022-08-03T10:12:11;101378.88;;;33.92;32.06
70976;BME280;58635;51.198;6.010;2022-08-03T10:14:38;101377.66;;;33.89;31.89
70976;BME280;58635;51.198;6.010;2022-08-03T10:17:04;101368.69;;;33.85;31.90
70976;BME280;58635;51.198;6.010;2022-08-03T10:19:30;101371.69;;;33.84;31.92
70976;BME280;58635;51.198;6.010;2022-08-03T10:22:01;101374.03;;;33.85;31.85
70976;BME280;58635;51.198;6.010;2022-08-03T10:24:29;101368.25;;;33.83;31.78
70976;BME280;58635;51.198;6.010;2022-08-03T10:27:21;101363.31;;;33.85;31.86
70976;BME280;58635;51.198;6.010;2022-08-03T10:29:51;101362.00;;;33.91;31.77
70976;BME280;58635;51.198;6.010;2022-08-03T10:32:27;101362.53;;;33.97;31.17
70976;BME280;58635;51.198;6.010;2022-08-03T10:35:03;101365.44;;;34.04;31.36
70976;BME280;58635;51.198;6.010;2022-08-03T10:37:31;101351.78;;;34.09;31.72
70976;BME280;58635;51.198;6.010;2022-08-03T10:39:59;101353.66;;;34.21;31.04
70976;BME280;58635;51.198;6.010;2022-08-03T10:42:27;101358.03;;;34.25;30.95
70976;BME280;58635;51.198;6.010;2022-08-03T10:45:06;101349.28;;;34.28;30.29
70976;BME280;58635;51.198;6.010;2022-08-03T10:47:34;101344.78;;;34.33;30.40
70976;BME280;58635;51.198;6.010;2022-08-03T10:50:01;101346.94;;;34.39;29.82
70976;BME280;58635;51.198;6.010;2022-08-03T10:52:26;101346.16;;;34.39;29.71
70976;BME280;58635;51.198;6.010;2022-08-03T10:54:52;101345.56;;;34.45;29.71
70976;BME280;58635;51.198;6.010;2022-08-03T10:57:50;101343.06;;;34.52;29.26
70976;BME280;58635;51.198;6.010;2022-08-03T11:00:22;101347.66;;;34.52;29.42
70976;BME280;58635;51.198;6.010;2022-08-03T11:05:32;101355.09;;;34.71;27.84
70976;BME280;58635;51.198;6.010;2022-08-03T11:10:46;101338.44;;;34.81;27.31
70976;BME280;58635;51.198;6.010;2022-08-03T11:13:18;101331.38;;;34.88;27.10
70976;BME280;58635;51.198;6.010;2022-08-03T11:15:46;101334.69;;;34.98;27.01
70976;BME280;58635;51.198;6.010;2022-08-03T11:18:12;101339.47;;;35.04;26.83
70976;BME280;58635;51.198;6.010;2022-08-03T11:23:10;101337.03;;;35.15;26.89
70976;BME280;58635;51.198;6.010;2022-08-03T11:28:40;101325.09;;;35.44;26.60
70976;BME280;58635;51.198;6.010;2022-08-03T11:39:39;101322.53;;;36.37;25.17
70976;BME280;58635;51.198;6.010;2022-08-03T11:44:53;101331.94;;;36.70;24.55
70976;BME280;58635;51.198;6.010;2022-08-03T11:47:20;101320.69;;;36.83;24.21
70976;BME280;58635;51.198;6.010;2022-08-03T11:49:47;101326.69;;;36.96;24.42
70976;BME280;58635;51.198;6.010;2022-08-03T11:52:13;101313.31;;;37.03;24.39
70976;BME280;58635;51.198;6.010;2022-08-03T11:54:39;101320.44;;;37.15;24.14
70976;BME280;58635;51.198;6.010;2022-08-03T11:57:05;101315.75;;;37.12;24.52
70976;BME280;58635;51.198;6.010;2022-08-03T11:59:35;101310.13;;;37.21;24.52
70976;BME280;58635;51.198;6.010;2022-08-03T12:02:12;101323.50;;;37.36;24.30
70976;BME280;58635;51.198;6.010;2022-08-03T12:04:57;101326.66;;;37.42;24.58
70976;BME280;58635;51.198;6.010;2022-08-03T12:07:26;101320.59;;;37.49;24.73
70976;BME280;58635;51.198;6.010;2022-08-03T12:10:12;101321.84;;;37.55;24.37
70976;BME280;58635;51.198;6.010;2022-08-03T12:12:38;101324.09;;;37.53;24.43
70976;BME280;58635;51.198;6.010;2022-08-03T12:15:05;101322.13;;;37.50;24.22
70976;BME280;58635;51.198;6.010;2022-08-03T12:17:40;101313.22;;;37.45;24.57
70976;BME280;58635;51.198;6.010;2022-08-03T12:20:07;101319.41;;;37.46;25.06
70976;BME280;58635;51.198;6.010;2022-08-03T12:22:39;101317.94;;;37.52;24.72
70976;BME280;58635;51.198;6.010;2022-08-03T12:25:05;101314.53;;;37.55;25.01
70976;BME280;58635;51.198;6.010;2022-08-03T12:27:31;101310.47;;;37.68;24.57
70976;BME280;58635;51.198;6.010;2022-08-03T12:29:58;101315.66;;;37.81;24.65
70976;BME280;58635;51.198;6.010;2022-08-03T12:32:26;101313.03;;;37.88;24.47
70976;BME280;58635;51.198;6.010;2022-08-03T12:34:52;101312.00;;;37.96;24.47
70976;BME280;58635;51.198;6.010;2022-08-03T12:37:19;101315.22;;;38.09;24.41
70976;BME280;58635;51.198;6.010;2022-08-03T12:39:52;101318.47;;;38.21;24.12
70976;BME280;58635;51.198;6.010;2022-08-03T12:42:18;101307.03;;;38.31;23.95
70976;BME280;58635;51.198;6.010;2022-08-03T12:44:44;101304.13;;;38.51;24.01
70976;BME280;58635;51.198;6.010;2022-08-03T12:47:10;101304.31;;;38.69;23.60
70976;BME280;58635;51.198;6.010;2022-08-03T12:49:50;101297.38;;;38.68;23.55
70976;BME280;58635;51.198;6.010;2022-08-03T12:52:17;101298.16;;;38.72;23.58
70976;BME280;58635;51.198;6.010;2022-08-03T12:54:53;101304.81;;;38.81;23.33
70976;BME280;58635;51.198;6.010;2022-08-03T12:57:20;101296.00;;;38.88;23.16
70976;BME280;58635;51.198;6.010;2022-08-03T12:59:45;101301.06;;;38.93;23.17
70976;BME280;58635;51.198;6.010;2022-08-03T13:04:42;101302.03;;;39.18;23.24
70976;BME280;58635;51.198;6.010;2022-08-03T13:07:10;101299.38;;;39.26;23.21
70976;BME280;58635;51.198;6.010;2022-08-03T13:09:52;101298.22;;;39.23;23.10
70976;BME280;58635;51.198;6.010;2022-08-03T13:12:23;101303.66;;;39.27;23.30
70976;BME280;58635;51.198;6.010;2022-08-03T13:14:51;101304.41;;;39.27;23.52
70976;BME280;58635;51.198;6.010;2022-08-03T13:17:17;101292.44;;;39.25;23.24
70976;BME280;58635;51.198;6.010;2022-08-03T13:19:44;101298.22;;;39.20;23.44
70976;BME280;58635;51.198;6.010;2022-08-03T13:22:24;101288.06;;;39.09;23.79
70976;BME280;58635;51.198;6.010;2022-08-03T13:24:52;101300.28;;;38.93;23.77
70976;BME280;58635;51.198;6.010;2022-08-03T13:27:20;101302.84;;;38.75;23.91
70976;BME280;58635;51.198;6.010;2022-08-03T13:29:45;101301.47;;;38.54;23.91
70976;BME280;58635;51.198;6.010;2022-08-03T13:32:10;101294.41;;;38.43;24.17